createdAt,value
2018-02-21T00:01:06.845Z,0.90
2018-02-21T00:03:34.423Z,0.80
2018-02-21T00:06:01.878Z,0.70
2018-02-21T00:08:29.313Z,0.70
2018-02-21T00:10:56.917Z,0.70
2018-02-21T00:13:24.374Z,0.70
2018-02-21T00:15:51.922Z,0.80
2018-02-21T00:18:19.363Z,0.80
2018-02-21T00:20:46.837Z,0.80
2018-02-21T00:23:14.277Z,0.80
2018-02-21T00:25:41.734Z,0.70
2018-02-21T00:28:09.192Z,0.80
2018-02-21T00:30:36.653Z,0.70
2018-02-21T00:33:04.086Z,0.70
2018-02-21T00:35:31.518Z,0.70
2018-02-21T00:37:59.730Z,0.70
2018-02-21T00:40:27.154Z,0.60
2018-02-21T00:42:54.657Z,0.70
2018-02-21T00:45:22.114Z,0.70
2018-02-21T00:47:49.777Z,0.60
2018-02-21T00:50:17.236Z,0.60
2018-02-21T00:52:44.785Z,0.70
2018-02-21T00:55:12.194Z,0.60
2018-02-21T01:00:13.473Z,0.50
2018-02-21T01:02:40.970Z,0.50
2018-02-21T01:05:08.501Z,0.50
2018-02-21T01:07:35.922Z,0.50
2018-02-21T01:10:03.354Z,0.50
2018-02-21T01:12:30.787Z,0.50
2018-02-21T01:14:58.340Z,0.40
2018-02-21T01:17:25.774Z,0.40
2018-02-21T01:19:53.218Z,0.40
2018-02-21T01:22:21.397Z,0.40
2018-02-21T01:24:48.834Z,0.40
2018-02-21T01:27:17.031Z,0.40
2018-02-21T01:29:44.466Z,0.30
2018-02-21T01:32:12.657Z,0.40
2018-02-21T01:34:40.138Z,0.30
2018-02-21T01:37:07.667Z,0.40
2018-02-21T01:39:35.153Z,0.40
2018-02-21T01:42:02.609Z,0.40
2018-02-21T01:44:30.063Z,0.40
2018-02-21T01:46:57.502Z,0.40
2018-02-21T01:49:24.950Z,0.30
2018-02-21T01:51:52.430Z,0.30
2018-02-21T01:54:19.866Z,0.20
2018-02-21T01:56:47.353Z,0.20
2018-02-21T01:59:14.901Z,0.20
2018-02-21T02:01:42.338Z,0.30
2018-02-21T02:04:09.826Z,0.30
2018-02-21T02:06:37.266Z,0.30
2018-02-21T02:09:04.716Z,0.30
2018-02-21T02:11:32.193Z,0.30
2018-02-21T02:13:59.658Z,0.30
2018-02-21T02:16:27.100Z,0.20
2018-02-21T02:18:54.557Z,0.20
2018-02-21T02:21:21.989Z,0.20
2018-02-21T02:23:49.414Z,0.30
2018-02-21T02:26:17.637Z,0.20
2018-02-21T02:28:45.058Z,0.20
2018-02-21T02:31:12.557Z,0.10
2018-02-21T02:33:40.000Z,0.00
2018-02-21T02:36:07.435Z,0.00
2018-02-21T02:38:39.601Z,0.10
2018-02-21T02:41:07.029Z,0.10
2018-02-21T02:43:35.233Z,0.20
2018-02-21T02:46:02.672Z,0.20
2018-02-21T02:48:30.865Z,0.00
2018-02-21T02:50:58.588Z,-0.10
2018-02-21T02:53:26.005Z,-0.10
2018-02-21T02:55:53.475Z,-0.10
2018-02-21T02:58:20.909Z,-0.10
2018-02-21T03:00:48.382Z,-0.10
2018-02-21T03:03:15.841Z,-0.20
2018-02-21T03:05:43.278Z,-0.30
2018-02-21T03:08:10.753Z,-0.30
2018-02-21T03:10:38.209Z,-0.30
2018-02-21T03:13:05.671Z,-0.20
2018-02-21T03:15:33.118Z,-0.20
2018-02-21T03:18:00.564Z,-0.20
2018-02-21T03:20:27.990Z,-0.20
2018-02-21T03:22:56.213Z,-0.20
2018-02-21T03:25:23.658Z,-0.20
2018-02-21T03:27:51.109Z,-0.10
2018-02-21T03:30:18.589Z,-0.10
2018-02-21T03:32:46.041Z,-0.10
2018-02-21T03:35:13.483Z,-0.10
2018-02-21T03:37:40.929Z,-0.10
2018-02-21T03:40:08.383Z,0.00
2018-02-21T03:42:35.800Z,0.00
2018-02-21T03:45:04.001Z,0.00
2018-02-21T03:47:31.462Z,0.00
2018-02-21T03:49:58.885Z,0.00
2018-02-21T03:52:27.125Z,-0.10
2018-02-21T03:54:54.553Z,-0.20
2018-02-21T03:57:22.021Z,-0.20
2018-02-21T03:59:49.484Z,-0.20
2018-02-21T04:02:16.950Z,-0.20
2018-02-21T04:04:44.385Z,-0.10
2018-02-21T04:07:11.865Z,-0.10
2018-02-21T04:09:39.290Z,-0.10
2018-02-21T04:12:06.730Z,-0.10
2018-02-21T04:14:34.228Z,-0.10
2018-02-21T04:17:01.686Z,-0.10
2018-02-21T04:19:29.113Z,0.00
2018-02-21T04:21:56.556Z,0.10
2018-02-21T04:24:23.989Z,0.20
2018-02-21T04:26:52.195Z,0.10
2018-02-21T04:29:19.631Z,0.10
2018-02-21T04:31:47.833Z,0.10
2018-02-21T04:34:15.278Z,0.00
2018-02-21T04:36:42.761Z,0.10
2018-02-21T04:39:10.201Z,0.20
2018-02-21T04:41:37.638Z,0.10
2018-02-21T04:44:05.077Z,0.10
2018-02-21T04:46:33.305Z,0.00
2018-02-21T04:49:00.773Z,0.00
2018-02-21T04:51:28.242Z,0.10
2018-02-21T04:53:55.689Z,0.10
2018-02-21T04:56:23.970Z,0.10
2018-02-21T04:58:57.217Z,0.20
2018-02-21T05:01:24.655Z,0.20
2018-02-21T05:03:52.866Z,0.30
2018-02-21T05:06:20.338Z,0.30
2018-02-21T05:08:47.802Z,0.30
2018-02-21T05:11:15.228Z,0.30
2018-02-21T05:13:42.821Z,0.20
2018-02-21T05:16:10.271Z,0.10
2018-02-21T05:18:37.698Z,0.20
2018-02-21T05:21:05.177Z,0.20
2018-02-21T05:23:32.605Z,0.10
2018-02-21T05:26:00.050Z,0.10
2018-02-21T05:28:27.641Z,0.10
2018-02-21T05:30:55.074Z,0.10
2018-02-21T05:33:22.553Z,0.10
2018-02-21T05:35:49.986Z,0.10
2018-02-21T05:38:17.470Z,0.10
2018-02-21T05:40:45.012Z,0.20
2018-02-21T05:43:12.445Z,0.20
2018-02-21T05:45:39.942Z,0.10
2018-02-21T05:48:08.177Z,0.10
2018-02-21T05:50:35.620Z,-0.10
2018-02-21T05:53:03.890Z,-0.20
2018-02-21T05:55:31.297Z,-0.30
2018-02-21T05:57:58.758Z,-0.30
2018-02-21T06:00:26.209Z,-0.20
2018-02-21T06:02:53.694Z,-0.20
2018-02-21T06:05:21.150Z,-0.20
2018-02-21T06:07:48.694Z,-0.20
2018-02-21T06:10:16.227Z,-0.10
2018-02-21T06:12:43.640Z,-0.10
2018-02-21T06:15:11.857Z,0.00
2018-02-21T06:17:39.306Z,0.00
2018-02-21T06:20:06.735Z,0.10
2018-02-21T06:22:34.941Z,0.10
2018-02-21T06:25:02.387Z,0.00
2018-02-21T06:27:30.581Z,0.00
2018-02-21T06:29:58.158Z,0.00
2018-02-21T06:32:25.625Z,0.00
2018-02-21T06:34:53.062Z,0.10
2018-02-21T06:37:20.538Z,0.10
2018-02-21T06:39:47.990Z,0.00
2018-02-21T06:42:15.421Z,0.00
2018-02-21T06:44:42.858Z,0.00
2018-02-21T06:47:10.298Z,0.00
2018-02-21T06:49:37.754Z,0.00
2018-02-21T06:52:05.951Z,0.20
2018-02-21T06:54:33.383Z,0.20
2018-02-21T06:57:00.817Z,0.20
2018-02-21T06:59:28.258Z,0.20
2018-02-21T07:01:55.697Z,0.20
2018-02-21T07:04:23.127Z,0.20
2018-02-21T07:06:50.620Z,0.20
2018-02-21T07:09:18.109Z,0.30
2018-02-21T07:11:46.303Z,0.40
2018-02-21T07:14:13.742Z,0.40
2018-02-21T07:16:41.942Z,0.60
2018-02-21T07:19:09.387Z,0.50
2018-02-21T07:21:36.864Z,0.60
2018-02-21T07:24:04.291Z,0.70
2018-02-21T07:26:32.499Z,0.90
2018-02-21T07:28:59.942Z,0.90
2018-02-21T07:31:27.365Z,0.90
2018-02-21T07:33:55.578Z,0.80
2018-02-21T07:36:23.036Z,0.80
2018-02-21T07:38:50.631Z,0.80
2018-02-21T07:41:18.088Z,0.70
2018-02-21T07:43:45.573Z,0.80
2018-02-21T07:46:13.018Z,0.70
2018-02-21T07:48:40.469Z,-2.20
2018-02-21T07:51:07.953Z,1.00
2018-02-21T07:53:35.397Z,1.00
2018-02-21T07:56:03.611Z,1.20
2018-02-21T07:58:31.079Z,1.20
2018-02-21T08:00:58.585Z,1.40
2018-02-21T08:03:26.017Z,1.50
2018-02-21T08:05:53.438Z,1.50
2018-02-21T08:08:20.878Z,1.60
2018-02-21T08:10:48.351Z,1.70
2018-02-21T08:13:16.212Z,1.70
2018-02-21T08:15:43.684Z,1.80
2018-02-21T08:18:11.840Z,1.70
2018-02-21T08:20:39.318Z,1.70
2018-02-21T08:23:06.842Z,1.50
2018-02-21T08:25:34.310Z,1.60
2018-02-21T08:28:01.799Z,1.60
2018-02-21T08:30:29.634Z,1.60
2018-02-21T08:32:57.122Z,1.70
2018-02-21T08:35:24.615Z,1.90
2018-02-21T08:37:52.037Z,2.00
2018-02-21T08:40:19.472Z,2.00
2018-02-21T08:42:46.906Z,2.10
2018-02-21T08:45:14.413Z,2.20
2018-02-21T08:47:41.830Z,1.60
2018-02-21T08:50:09.274Z,2.30
2018-02-21T08:52:36.722Z,2.50
2018-02-21T08:55:04.173Z,2.60
2018-02-21T08:57:31.628Z,2.70
2018-02-21T08:59:59.137Z,2.80
2018-02-21T09:02:26.613Z,2.70
2018-02-21T09:04:54.039Z,2.70
2018-02-21T09:07:21.538Z,2.80
2018-02-21T09:09:49.743Z,2.60
2018-02-21T09:12:17.204Z,2.60
2018-02-21T09:14:44.626Z,2.70
2018-02-21T09:17:12.249Z,2.90
2018-02-21T09:19:39.711Z,3.00
2018-02-21T09:22:07.284Z,2.90
2018-02-21T09:24:34.740Z,3.00
2018-02-21T09:27:02.181Z,3.00
2018-02-21T09:29:29.627Z,3.10
2018-02-21T09:31:57.073Z,3.00
2018-02-21T09:34:24.531Z,3.10
2018-02-21T09:36:52.038Z,3.10
2018-02-21T09:39:19.566Z,3.30
2018-02-21T09:41:47.018Z,3.30
2018-02-21T09:44:14.491Z,3.40
2018-02-21T09:46:42.063Z,3.50
2018-02-21T09:49:10.262Z,3.70
2018-02-21T09:51:37.696Z,3.60
2018-02-21T09:54:05.926Z,3.70
2018-02-21T09:56:33.417Z,3.60
2018-02-21T09:59:00.885Z,3.60
2018-02-21T10:01:28.332Z,3.60
2018-02-21T10:03:55.882Z,3.60
2018-02-21T10:06:23.389Z,3.70
2018-02-21T10:08:50.796Z,3.90
2018-02-21T10:11:19.022Z,4.10
2018-02-21T10:13:46.456Z,4.00
2018-02-21T10:16:14.784Z,4.00
2018-02-21T10:18:42.239Z,4.00
2018-02-21T10:21:09.714Z,4.10
2018-02-21T10:23:37.257Z,4.30
2018-02-21T10:26:04.714Z,4.40
2018-02-21T10:28:32.283Z,4.40
2018-02-21T10:31:00.306Z,4.40
2018-02-21T10:33:27.768Z,4.40
2018-02-21T10:35:55.202Z,4.40
2018-02-21T10:38:23.414Z,4.90
2018-02-21T10:40:50.868Z,4.80
2018-02-21T10:43:18.317Z,5.10
2018-02-21T10:45:45.814Z,5.40
2018-02-21T10:48:13.251Z,5.70
2018-02-21T10:50:40.729Z,5.80
2018-02-21T10:53:08.190Z,5.90
2018-02-21T10:55:35.704Z,5.80
2018-02-21T10:58:03.199Z,5.60
2018-02-21T11:00:36.337Z,5.60
2018-02-21T11:03:03.814Z,5.80
2018-02-21T11:05:31.286Z,5.90
2018-02-21T11:07:58.734Z,5.90
2018-02-21T11:10:26.175Z,6.00
2018-02-21T11:12:53.626Z,6.20
2018-02-21T11:15:21.078Z,6.20
2018-02-21T11:17:48.515Z,6.00
2018-02-21T11:20:16.730Z,5.90
2018-02-21T11:22:44.191Z,5.80
2018-02-21T11:25:11.742Z,5.80
2018-02-21T11:27:39.189Z,5.70
2018-02-21T11:30:07.288Z,5.70
2018-02-21T11:32:34.816Z,5.70
2018-02-21T11:35:02.307Z,5.80
2018-02-21T11:37:29.831Z,5.90
2018-02-21T11:39:57.340Z,6.30
2018-02-21T11:42:24.761Z,6.50
2018-02-21T11:44:52.213Z,6.40
2018-02-21T11:47:19.651Z,6.40
2018-02-21T11:49:47.160Z,6.50
2018-02-21T11:52:14.690Z,6.60
2018-02-21T11:54:42.151Z,6.60
2018-02-21T11:57:09.602Z,6.60
2018-02-21T11:59:37.045Z,6.80
2018-02-21T12:02:04.538Z,6.80
2018-02-21T12:04:32.013Z,6.70
2018-02-21T12:06:59.534Z,6.70
2018-02-21T12:09:26.959Z,6.60
2018-02-21T12:11:54.543Z,6.40
2018-02-21T12:14:22.021Z,6.10
2018-02-21T12:16:49.576Z,6.00
2018-02-21T12:19:17.094Z,6.10
2018-02-21T12:21:44.573Z,6.00
2018-02-21T12:24:12.013Z,6.00
2018-02-21T12:26:39.468Z,6.00
2018-02-21T12:29:06.954Z,6.10
2018-02-21T12:31:34.498Z,6.20
2018-02-21T12:34:01.959Z,6.20
2018-02-21T12:38:10.583Z,5.70
2018-02-21T12:40:43.858Z,5.70
2018-02-21T12:43:11.447Z,5.50
2018-02-21T12:45:38.920Z,5.50
2018-02-21T12:48:06.392Z,5.60
2018-02-21T12:50:33.914Z,5.70
2018-02-21T12:53:01.386Z,5.70
2018-02-21T12:55:28.954Z,5.80
2018-02-21T12:57:56.376Z,5.60
2018-02-21T13:00:23.869Z,5.60
2018-02-21T13:02:51.294Z,5.40
2018-02-21T13:05:18.761Z,5.20
2018-02-21T13:07:46.246Z,4.90
2018-02-21T13:10:13.874Z,4.80
2018-02-21T13:12:41.342Z,4.80
2018-02-21T13:15:08.803Z,4.80
2018-02-21T13:17:36.278Z,4.80
2018-02-21T13:20:03.802Z,4.80
2018-02-21T13:22:31.258Z,4.80
2018-02-21T13:24:58.874Z,4.90
2018-02-21T13:27:27.119Z,4.90
2018-02-21T13:29:54.577Z,4.90
2018-02-21T13:32:22.434Z,5.00
2018-02-21T13:34:49.896Z,5.00
2018-02-21T13:37:17.351Z,5.00
2018-02-21T13:39:45.003Z,5.00
2018-02-21T13:42:12.437Z,4.90
2018-02-21T13:44:39.876Z,4.90
2018-02-21T13:47:07.308Z,4.90
2018-02-21T13:49:35.526Z,4.90
2018-02-21T13:52:02.996Z,4.80
2018-02-21T13:54:30.461Z,4.90
2018-02-21T13:56:57.894Z,4.90
2018-02-21T13:59:25.327Z,4.90
2018-02-21T14:01:52.763Z,4.80
2018-02-21T14:04:21.906Z,4.80
2018-02-21T14:06:49.365Z,4.70
2018-02-21T14:09:16.810Z,4.80
2018-02-21T14:11:44.249Z,4.80
2018-02-21T14:14:11.711Z,4.80
2018-02-21T14:16:39.225Z,4.90
2018-02-21T14:19:06.677Z,5.00
2018-02-21T14:21:34.139Z,4.90
2018-02-21T14:24:01.588Z,4.90
2018-02-21T14:26:29.045Z,4.80
2018-02-21T14:28:56.484Z,4.60
2018-02-21T14:31:24.060Z,4.70
2018-02-21T14:33:51.523Z,4.70
2018-02-21T14:36:18.965Z,4.60
2018-02-21T14:38:46.435Z,4.60
2018-02-21T14:41:13.877Z,4.70
2018-02-21T14:43:41.334Z,4.70
2018-02-21T14:46:08.793Z,4.60
2018-02-21T14:48:36.404Z,4.60
2018-02-21T14:51:04.597Z,4.70
2018-02-21T14:53:32.082Z,4.70
2018-02-21T14:55:59.528Z,4.70
2018-02-21T14:58:26.979Z,4.70
2018-02-21T15:00:54.449Z,4.70
2018-02-21T15:03:21.898Z,4.60
2018-02-21T15:05:49.339Z,4.80
2018-02-21T15:08:17.015Z,4.80
2018-02-21T15:10:44.578Z,4.70
2018-02-21T15:13:12.018Z,4.70
2018-02-21T15:15:39.499Z,4.80
2018-02-21T15:18:07.058Z,4.80
2018-02-21T15:20:34.526Z,4.90
2018-02-21T15:23:02.077Z,5.00
2018-02-21T15:25:29.549Z,5.00
2018-02-21T15:27:57.199Z,4.90
2018-02-21T15:30:24.764Z,4.80
2018-02-21T15:32:52.263Z,5.00
2018-02-21T15:35:20.527Z,5.00
2018-02-21T15:37:47.954Z,4.90
2018-02-21T15:40:15.507Z,5.00
2018-02-21T15:42:42.955Z,5.10
2018-02-21T15:45:10.400Z,5.00
2018-02-21T15:47:37.842Z,4.90
2018-02-21T15:50:05.294Z,4.80
2018-02-21T15:52:32.890Z,4.80
2018-02-21T15:55:00.458Z,4.70
2018-02-21T15:57:28.015Z,4.60
2018-02-21T15:59:55.458Z,4.60
2018-02-21T16:02:22.906Z,4.50
2018-02-21T16:04:50.354Z,4.40
2018-02-21T16:07:17.810Z,4.30
2018-02-21T16:09:45.244Z,4.30
2018-02-21T16:12:12.706Z,4.30
2018-02-21T16:14:40.234Z,4.20
2018-02-21T16:17:08.461Z,4.30
2018-02-21T16:19:35.906Z,4.20
2018-02-21T16:22:03.354Z,4.20
2018-02-21T16:24:30.802Z,4.30
2018-02-21T16:26:58.256Z,4.20
2018-02-21T16:29:25.842Z,4.30
2018-02-21T16:31:53.298Z,4.20
2018-02-21T16:34:20.782Z,4.10
2018-02-21T16:36:48.217Z,4.00
2018-02-21T16:39:15.686Z,4.00
2018-02-21T16:41:43.158Z,4.00
2018-02-21T16:44:10.655Z,4.00
2018-02-21T16:46:38.156Z,3.90
2018-02-21T16:49:05.607Z,3.90
2018-02-21T16:51:33.059Z,3.80
2018-02-21T16:54:06.203Z,3.90
2018-02-21T16:56:34.516Z,3.80
2018-02-21T16:59:01.954Z,3.70
2018-02-21T17:01:29.454Z,3.80
2018-02-21T17:03:57.005Z,3.70
2018-02-21T17:06:24.549Z,3.80
2018-02-21T17:08:52.000Z,3.80
2018-02-21T17:11:19.438Z,3.90
2018-02-21T17:13:46.868Z,3.80
2018-02-21T17:16:14.335Z,3.70
2018-02-21T17:18:42.571Z,3.70
2018-02-21T17:21:10.071Z,3.70
2018-02-21T17:23:37.513Z,3.70
2018-02-21T17:26:05.050Z,3.60
2018-02-21T17:28:32.510Z,3.60
2018-02-21T17:30:59.946Z,3.50
2018-02-21T17:33:27.419Z,3.40
2018-02-21T17:35:54.962Z,3.40
2018-02-21T17:38:22.399Z,3.30
2018-02-21T17:40:55.417Z,3.30
2018-02-21T17:43:22.858Z,3.20
2018-02-21T17:45:50.298Z,3.20
2018-02-21T17:48:17.894Z,3.20
2018-02-21T17:50:45.454Z,3.10
2018-02-21T17:53:12.976Z,3.10
2018-02-21T17:55:40.408Z,3.10
2018-02-21T17:58:08.630Z,3.10
2018-02-21T18:00:36.082Z,3.00
2018-02-21T18:03:03.563Z,3.10
2018-02-21T18:05:31.105Z,3.00
2018-02-21T18:07:58.558Z,3.00
2018-02-21T18:10:26.005Z,2.90
2018-02-21T18:12:53.453Z,2.80
2018-02-21T18:15:20.900Z,2.70
2018-02-21T18:17:48.346Z,2.70
2018-02-21T18:20:15.790Z,2.70
2018-02-21T18:22:43.246Z,2.60
2018-02-21T18:25:10.692Z,2.60
2018-02-21T18:27:38.919Z,2.70
2018-02-21T18:30:06.770Z,2.60
2018-02-21T18:32:34.205Z,2.70
2018-02-21T18:35:01.634Z,2.70
2018-02-21T18:37:29.065Z,2.70
2018-02-21T18:39:56.490Z,2.70
2018-02-21T18:42:23.947Z,2.60
2018-02-21T18:44:51.398Z,2.50
2018-02-21T18:47:18.844Z,2.50
2018-02-21T18:49:46.275Z,2.50
2018-02-21T18:52:14.482Z,2.40
2018-02-21T18:54:41.914Z,2.30
2018-02-21T18:57:10.130Z,2.30
2018-02-21T18:59:37.968Z,2.30
2018-02-21T19:02:05.415Z,2.30
2018-02-21T19:04:33.614Z,2.30
2018-02-21T19:07:01.050Z,2.20
2018-02-21T19:09:28.482Z,2.30
2018-02-21T19:11:56.702Z,2.20
2018-02-21T19:14:24.237Z,2.10
2018-02-21T19:16:51.630Z,2.20
2018-02-21T19:19:19.074Z,2.20
2018-02-21T19:21:46.525Z,2.30
2018-02-21T19:24:13.986Z,2.20
2018-02-21T19:26:41.413Z,2.20
2018-02-21T19:29:08.849Z,2.20
2018-02-21T19:31:37.053Z,2.30
2018-02-21T19:34:04.520Z,2.30
2018-02-21T19:36:31.953Z,2.30
2018-02-21T19:38:59.393Z,2.30
2018-02-21T19:41:26.853Z,2.20
2018-02-21T19:43:54.295Z,2.20
2018-02-21T19:46:21.733Z,2.20
2018-02-21T19:48:49.232Z,2.20
2018-02-21T19:51:16.658Z,2.20
2018-02-21T19:53:44.106Z,2.20
2018-02-21T19:56:11.546Z,2.10
2018-02-21T19:58:39.761Z,2.00
2018-02-21T20:01:07.971Z,2.00
2018-02-21T20:03:35.437Z,1.90
2018-02-21T20:06:02.877Z,2.00
2018-02-21T20:08:30.313Z,2.00
2018-02-21T20:10:58.529Z,1.90
2018-02-21T20:13:25.953Z,1.90
2018-02-21T20:15:53.394Z,1.90
2018-02-21T20:18:21.612Z,2.00
2018-02-21T20:20:49.048Z,2.00
2018-02-21T20:23:16.487Z,2.00
2018-02-21T20:25:44.700Z,1.80
2018-02-21T20:28:12.132Z,1.80
2018-02-21T20:30:39.605Z,1.70
2018-02-21T20:33:06.994Z,1.50
2018-02-21T20:35:34.441Z,1.50
2018-02-21T20:38:01.881Z,1.40
2018-02-21T20:40:29.353Z,1.30
2018-02-21T20:42:56.793Z,1.20
2018-02-21T20:45:24.383Z,1.30
2018-02-21T20:47:51.813Z,1.20
2018-02-21T20:50:19.266Z,1.20
2018-02-21T20:52:46.735Z,1.20
2018-02-21T20:55:14.180Z,1.20
2018-02-21T20:57:41.639Z,1.20
2018-02-21T21:00:09.097Z,1.30
2018-02-21T21:02:36.534Z,1.30
2018-02-21T21:05:03.965Z,1.30
2018-02-21T21:07:31.472Z,1.30
2018-02-21T21:09:58.908Z,1.30
2018-02-21T21:12:26.358Z,1.30
2018-02-21T21:14:53.781Z,1.30
2018-02-21T21:17:21.248Z,1.40
2018-02-21T21:19:49.454Z,1.40
2018-02-21T21:22:16.885Z,1.30
2018-02-21T21:24:44.368Z,1.40
2018-02-21T21:27:11.794Z,1.40
2018-02-21T21:29:39.238Z,1.40
2018-02-21T21:32:07.463Z,1.50
2018-02-21T21:34:34.896Z,1.50
2018-02-21T21:37:02.335Z,1.60
2018-02-21T21:39:29.779Z,1.60
2018-02-21T21:41:57.970Z,1.60
2018-02-21T21:44:25.406Z,1.60
2018-02-21T21:46:53.618Z,1.50
2018-02-21T21:49:21.054Z,1.50
2018-02-21T21:51:48.510Z,1.50
2018-02-21T21:54:15.945Z,1.50
2018-02-21T21:56:44.175Z,1.60
2018-02-21T21:59:11.656Z,1.60
2018-02-21T22:01:39.061Z,1.70
2018-02-21T22:04:06.646Z,1.70
2018-02-21T22:06:34.078Z,1.70
2018-02-21T22:09:01.506Z,1.70
2018-02-21T22:11:29.751Z,1.60
2018-02-21T22:13:57.182Z,1.50
2018-02-21T22:16:24.623Z,1.50
2018-02-21T22:18:53.049Z,1.50
2018-02-21T22:21:20.478Z,1.50
2018-02-21T22:23:47.918Z,1.50
2018-02-21T22:26:15.362Z,1.40
2018-02-21T22:28:42.845Z,1.50
2018-02-21T22:31:10.300Z,1.50
2018-02-21T22:33:37.768Z,1.50
2018-02-21T22:36:05.235Z,1.50
2018-02-21T22:38:32.676Z,1.50
2018-02-21T22:41:00.850Z,1.50
2018-02-21T22:43:28.290Z,1.40
2018-02-21T22:45:55.773Z,1.40
2018-02-21T22:48:23.245Z,1.40
2018-02-21T22:50:50.848Z,1.40
2018-02-21T22:53:18.338Z,1.40
2018-02-21T22:55:45.795Z,1.30
2018-02-21T22:58:13.262Z,1.20
2018-02-21T23:00:40.697Z,1.10
2018-02-21T23:03:08.161Z,1.10
2018-02-21T23:05:35.620Z,1.10
2018-02-21T23:08:03.208Z,1.20
2018-02-21T23:10:31.459Z,1.40
2018-02-21T23:12:58.938Z,1.30
2018-02-21T23:15:27.161Z,1.40
2018-02-21T23:17:54.673Z,1.40
2018-02-21T23:20:22.246Z,1.50
2018-02-21T23:22:50.474Z,1.50
2018-02-21T23:25:17.928Z,1.40
2018-02-21T23:27:45.466Z,1.50
2018-02-21T23:30:12.939Z,1.50
2018-02-21T23:32:40.412Z,1.40
2018-02-21T23:35:07.883Z,1.40
2018-02-21T23:37:36.380Z,1.40
2018-02-21T23:40:04.642Z,1.50
2018-02-21T23:42:32.206Z,1.50
2018-02-21T23:44:59.645Z,1.60
2018-02-21T23:47:27.129Z,1.70
2018-02-21T23:49:55.338Z,1.80
2018-02-21T23:52:22.769Z,1.80
2018-02-21T23:54:50.202Z,1.80
2018-02-21T23:57:17.665Z,1.90
2018-02-21T23:59:45.094Z,1.90
